Thursday, January 17, 2019, 6:24 AM EST
Back to Local

KASH, Nashua, Boire Field Airport

Location: Nashua, NH, United States Lat: 42.782
Local Time: 6:24 AM EST (11:24 GMT) Lon: -71.515
Time Zone: US/Eastern Elev: 200 ft

Show me the last for .
Show Decoded

2019-01-17 05:56 METAR KASH 171056Z AUTO 32010KT 10SM CLR M11/M17 A3035 RMK AO2 SLP288 T11061172
                 FZRANO $ =
2019-01-17 04:56 METAR KASH 170956Z AUTO 34004KT 10SM CLR M10/M16 A3033 RMK AO2 SLP282 T11001161
                 FZRANO $ =
2019-01-17 03:56 METAR KASH 170856Z AUTO 34005KT 10SM CLR M09/M16 A3030 RMK AO2 SLP273 T10891161
                 51035 FZRANO $ =
2019-01-17 02:56 METAR KASH 170756Z AUTO 34007KT 10SM CLR M08/M16 A3028 RMK AO2 SLP264 T10781156
                 FZRANO $ =
2019-01-17 01:56 METAR KASH 170656Z AUTO 32012G17KT 10SM CLR M06/M14 A3024 RMK AO2 SLP252
                 T10611144 FZRANO $ =
2019-01-17 00:56 METAR KASH 170556Z AUTO 31013G21KT 10SM CLR M04/M14 A3020 RMK AO2 SLP237 6////
                 T10441144 10017 21044 51041 FZRANO $ =
2019-01-16 23:56 METAR KASH 170456Z AUTO 31013KT 10SM CLR M03/M12 A3015 RMK AO2 SLP223 T10281122
                 400281106 FZRANO $ =
2019-01-16 22:56 METAR KASH 170356Z AUTO 31018G24KT 10SM BKN046 BKN055 M02/M09 A3012 RMK AO2
                 SLP210 T10171094 FZRANO $ =
2019-01-16 21:56 METAR KASH 170256Z AUTO 30013KT 10SM FEW048 00/M10 A3007 RMK AO2 SLP195
                 T00001100 53034 FZRANO $ =
2019-01-16 20:56 METAR KASH 170156Z 28009KT 10SM OVC060 01/M10 A3003 RMK AO2 SLP182 T00111100 $ =
2019-01-16 19:56 METAR KASH 170056Z 26004KT 10SM BKN055 01/M07 A2999 RMK AO2 SLP169 T00111067 $ =
2019-01-16 18:56 METAR KASH 162356Z VRB03KT 10SM BKN050 OVC065 01/M06 A2997 RMK AO2 SLP161
                 T00111056 10028 20011 53020 $ =
2019-01-16 17:56 METAR KASH 162256Z 00000KT 10SM FEW050 BKN070 01/M06 A2995 RMK AO2 SLP154
                 T00111061 $ =
2019-01-16 16:56 METAR KASH 162156Z VRB05KT 10SM FEW045 BKN055 BKN070 02/M06 A2992 RMK AO2 SLP143
                 T00171061 $ =
2019-01-16 15:56 METAR KASH 162056Z 26004KT 10SM OVC055 03/M06 A2991 RMK AO2 SLP140 T00281061
                 53005 $ =
2019-01-16 14:56 METAR KASH 161956Z VRB05KT 10SM CLR 03/M06 A2990 RMK AO2 SLP137 T00281061 $ =
2019-01-16 13:56 METAR KASH 161856Z 28007KT 240V310 10SM OVC038 02/M06 A2991 RMK AO2 SLP138
                 T00171056 $ =
2019-01-16 12:56 METAR KASH 161756Z 27007KT 230V290 10SM OVC036 02/M06 A2990 RMK AO2 SLP135
                 T00171056 10017 21089 56018 $ =
2019-01-16 11:56 METAR KASH 161656Z 24012G18KT 200V280 10SM BKN036 02/M06 A2990 RMK AO2 SLP137
                 T00171061 $ =
2019-01-16 10:56 METAR KASH 161556Z 27006KT 10SM OVC036 01/M06 A2993 RMK AO2 SLP147 T00061056 $ =
2019-01-16 09:56 METAR KASH 161456Z VRB03KT 10SM OVC032 M01/M05 A2995 RMK AO2 SLP154 T10111050
                 55007 $ =
2019-01-16 08:56 METAR KASH 161356Z COR VRB05KT 10SM SCT042 M03/M05 A2995 RMK AO2 SLP154
                 T10281050 $ =
2019-01-16 07:56 METAR KASH 161256Z VRB04KT 10SM SCT055 M06/M07 A2995 RMK AO2 SLP155 T10611067 $
                 =
2019-01-16 06:56 METAR KASH 161156Z 00000KT 10SM SCT036 M08/M09 A2997 RMK AO2 SLP161 T10831089
                 11067 21106 56006 $ =

Support USWX by starting your Amazon purchase here.